Time;durP1;ratioP1;P1;durP2;ratioP2;P2;SDS_P1;SDS_P2;PMS_P1;PMS_P2;Temp;Humidity;BMP_temperature;BMP_pressure;BME280_temperature;BME280_humidity;BME280_pressure;Samples;Min_cycle;Max_cycle;Signal;HPM_P1;HPM_P2
2023/09/21 00:00:28;;;;;;;3.08;2.78;;;19.80;89.50;;;;;;6125953;23;20559;-81
2023/09/21 00:02:55;;;;;;;3.15;2.42;;;19.70;89.20;;;;;;6125872;23;20147;-82
2023/09/21 00:05:23;;;;;;;2.90;2.60;;;19.80;89.30;;;;;;6077697;23;20197;-85
2023/09/21 00:07:49;;;;;;;2.65;2.42;;;19.70;89.20;;;;;;6151065;22;20210;-88
2023/09/21 00:10:20;;;;;;;2.88;2.58;;;19.70;89.30;;;;;;6126074;23;20221;-85
2023/09/21 00:12:50;;;;;;;3.40;2.78;;;19.80;89.40;;;;;;6076417;23;20186;-85
2023/09/21 00:15:17;;;;;;;2.60;2.40;;;19.80;89.00;;;;;;6203229;23;20227;-83
2023/09/21 00:17:43;;;;;;;3.25;2.78;;;19.80;89.40;;;;;;6125945;23;20148;-82
2023/09/21 00:20:25;;;;;;;3.10;2.58;;;19.70;89.40;;;;;;6125754;23;20607;-85
2023/09/21 00:22:53;;;;;;;3.85;3.10;;;19.70;89.40;;;;;;6125887;23;20155;-81
2023/09/21 00:25:19;;;;;;;3.15;2.85;;;19.70;89.60;;;;;;6125880;22;20194;-84
2023/09/21 00:27:45;;;;;;;3.10;2.80;;;19.70;89.70;;;;;;6126261;23;20167;-82
2023/09/21 00:30:12;;;;;;;3.45;3.15;;;19.70;89.60;;;;;;6125726;23;20236;-81
2023/09/21 00:32:38;;;;;;;3.10;2.80;;;19.80;89.60;;;;;;6101071;23;20144;-83
2023/09/21 00:35:11;;;;;;;3.20;2.90;;;19.80;89.60;;;;;;6101511;23;20143;-85
2023/09/21 00:37:38;;;;;;;3.10;2.80;;;19.70;89.60;;;;;;6177481;23;20151;-85
2023/09/21 00:40:22;;;;;;;3.30;2.92;;;19.70;89.70;;;;;;6151849;22;20571;-86
2023/09/21 00:42:48;;;;;;;3.10;2.80;;;19.70;89.60;;;;;;6178083;23;20283;-86
2023/09/21 00:45:14;;;;;;;3.00;2.70;;;19.70;89.70;;;;;;6077519;23;20140;-82
2023/09/21 00:47:44;;;;;;;3.17;2.88;;;19.70;89.70;;;;;;6151472;22;20135;-84
2023/09/21 00:50:11;;;;;;;3.05;2.75;;;19.70;89.70;;;;;;6151500;22;20163;-82
2023/09/21 00:52:40;;;;;;;3.97;3.30;;;19.70;89.70;;;;;;6125925;23;20128;-81
2023/09/21 00:55:08;;;;;;;3.40;2.85;;;19.70;89.70;;;;;;6126266;23;20608;-87
2023/09/21 00:57:36;;;;;;;3.30;2.88;;;19.60;89.80;;;;;;6151615;22;20238;-79
2023/09/21 01:00:05;;;;;;;3.30;2.97;;;19.70;89.80;;;;;;6101279;23;20148;-81
2023/09/21 01:02:31;;;;;;;3.30;2.95;;;19.70;89.80;;;;;;6125527;23;20472;-85
2023/09/21 01:05:00;;;;;;;3.00;2.67;;;19.70;89.90;;;;;;6077502;23;20151;-86
2023/09/21 01:07:29;;;;;;;3.20;2.90;;;19.70;89.80;;;;;;6177495;23;20155;-81
2023/09/21 01:09:59;;;;;;;3.13;2.78;;;19.70;89.70;;;;;;6152298;23;20618;-83
2023/09/21 01:12:27;;;;;;;4.10;3.15;;;19.70;89.70;;;;;;6202501;23;20231;-79
2023/09/21 01:15:08;;;;;;;3.10;2.80;;;19.70;89.70;;;;;;6202783;23;20156;-84
2023/09/21 01:17:39;;;;;;;3.10;2.80;;;19.70;89.80;;;;;;6076919;23;20152;-86
2023/09/21 01:20:27;;;;;;;3.05;2.70;;;19.70;89.80;;;;;;6151441;22;20132;-85
2023/09/21 01:23:18;;;;;;;3.33;2.88;;;19.60;89.80;;;;;;6088008;23;20190;-82
2023/09/21 01:25:50;;;;;;;2.75;2.55;;;19.70;89.70;;;;;;6151348;22;20194;-84
2023/09/21 01:28:19;;;;;;;3.05;2.67;;;19.70;89.70;;;;;;6077720;23;20536;-82
2023/09/21 01:30:49;;;;;;;3.10;2.80;;;19.60;89.70;;;;;;6101414;23;20251;-82
2023/09/21 01:33:15;;;;;;;2.92;2.60;;;19.70;89.70;;;;;;6202109;23;20230;-80
2023/09/21 01:35:44;;;;;;;3.50;2.78;;;19.70;90.20;;;;;;6125625;23;20132;-87
2023/09/21 01:38:13;;;;;;;3.03;2.72;;;19.60;89.70;;;;;;6202590;23;20237;-83
2023/09/21 01:40:41;;;;;;;3.38;2.80;;;19.70;89.80;;;;;;6152543;23;20156;-82
2023/09/21 01:43:10;;;;;;;3.30;3.00;;;19.60;89.80;;;;;;6151897;23;20554;-85
2023/09/21 01:45:40;;;;;;;3.45;2.80;;;19.70;89.80;;;;;;6176478;23;20163;-82
2023/09/21 01:48:09;;;;;;;3.22;2.92;;;19.60;89.80;;;;;;6177054;23;20163;-83
2023/09/21 01:50:40;;;;;;;3.20;2.90;;;19.60;89.90;;;;;;6151502;22;20201;-81
2023/09/21 01:53:10;;;;;;;3.22;2.80;;;19.60;89.80;;;;;;6201134;23;20175;-82
2023/09/21 01:55:40;;;;;;;3.20;2.90;;;19.60;89.90;;;;;;6176676;23;20147;-83
2023/09/21 01:58:06;;;;;;;3.97;3.08;;;19.60;89.80;;;;;;6177011;23;20155;-86
2023/09/21 02:00:35;;;;;;;3.70;3.00;;;19.60;89.70;;;;;;6076908;23;20597;-84
2023/09/21 02:03:06;;;;;;;3.70;3.00;;;19.60;89.80;;;;;;6126235;23;20214;-83
2023/09/21 02:05:32;;;;;;;3.10;2.80;;;19.60;90.00;;;;;;6126540;23;20131;-83
2023/09/21 02:08:04;;;;;;;3.17;2.88;;;19.60;89.80;;;;;;6100397;23;20160;-82
2023/09/21 02:10:31;;;;;;;3.50;2.75;;;19.60;89.80;;;;;;6176518;23;20183;-83
2023/09/21 02:12:59;;;;;;;3.25;2.95;;;19.60;89.80;;;;;;6151010;23;20139;-82
2023/09/21 02:15:25;;;;;;;3.08;2.53;;;19.60;89.80;;;;;;6125618;23;20136;-83
2023/09/21 02:17:54;;;;;;;3.50;3.00;;;19.60;89.80;;;;;;6151264;22;20139;-86
2023/09/21 02:20:24;;;;;;;3.10;2.80;;;19.60;89.80;;;;;;6102185;23;20564;-83
2023/09/21 02:22:51;;;;;;;3.22;2.92;;;19.60;89.70;;;;;;6201937;23;20182;-87
2023/09/21 02:25:17;;;;;;;3.05;2.60;;;19.60;89.90;;;;;;6100516;23;20205;-81
2023/09/21 02:27:50;;;;;;;3.10;2.80;;;19.60;90.00;;;;;;6125413;23;20204;-83
2023/09/21 02:30:21;;;;;;;3.05;2.75;;;19.60;89.80;;;;;;6151221;22;20216;-85
2023/09/21 02:32:49;;;;;;;3.13;2.72;;;19.60;89.80;;;;;;6126061;23;20211;-84
2023/09/21 02:35:16;;;;;;;3.65;2.67;;;19.60;89.90;;;;;;6125951;23;20146;-83
2023/09/21 02:37:44;;;;;;;3.08;2.78;;;19.60;89.90;;;;;;6125248;23;20482;-86
2023/09/21 02:40:14;;;;;;;3.30;3.00;;;19.60;89.80;;;;;;6126425;23;20219;-84
2023/09/21 02:42:43;;;;;;;2.90;2.60;;;19.60;89.90;;;;;;6155924;22;20226;-85
2023/09/21 02:45:10;;;;;;;3.47;2.90;;;19.60;90.00;;;;;;6105377;23;20238;-83
2023/09/21 02:47:37;;;;;;;3.00;2.70;;;19.50;89.90;;;;;;6105458;23;20132;-81
2023/09/21 02:52:45;;;;;;;3.28;2.97;;;19.60;90.00;;;;;;6127988;23;20451;-83
2023/09/21 02:55:13;;;;;;;3.38;2.80;;;19.60;90.00;;;;;;6100759;23;20158;-85
2023/09/21 02:57:39;;;;;;;2.80;2.60;;;19.60;90.00;;;;;;6125223;23;20456;-82
2023/09/21 03:00:21;;;;;;;3.10;2.80;;;19.60;89.90;;;;;;6125500;23;20218;-83
2023/09/21 03:02:49;;;;;;;2.78;2.58;;;19.60;89.80;;;;;;6108205;23;20147;-83
2023/09/21 03:05:17;;;;;;;3.60;3.25;;;19.60;89.90;;;;;;6107927;23;20590;-83
2023/09/21 03:07:45;;;;;;;3.72;3.20;;;19.50;90.00;;;;;;6130984;23;20139;-85
2023/09/21 03:10:11;;;;;;;3.25;2.95;;;19.60;90.00;;;;;;6106333;23;20168;-82
2023/09/21 03:12:38;;;;;;;3.15;2.85;;;19.50;90.00;;;;;;6130217;23;20140;-83
2023/09/21 03:15:07;;;;;;;3.45;3.03;;;19.60;90.00;;;;;;6126772;23;20566;-86
2023/09/21 03:17:36;;;;;;;3.25;2.90;;;19.60;90.00;;;;;;6125444;23;20142;-86
2023/09/21 03:20:09;;;;;;;3.80;3.20;;;19.60;90.00;;;;;;6124887;23;20244;-86
2023/09/21 03:22:35;;;;;;;3.38;3.08;;;19.60;90.00;;;;;;6151308;22;20253;-83
2023/09/21 03:25:01;;;;;;;3.65;3.20;;;19.60;90.00;;;;;;6099908;23;20222;-82
2023/09/21 03:27:26;;;;;;;3.30;3.00;;;19.60;90.00;;;;;;6076370;23;20170;-82
2023/09/21 03:29:53;;;;;;;3.05;2.65;;;19.60;90.00;;;;;;6100381;23;20452;-82
2023/09/21 03:32:18;;;;;;;3.08;2.78;;;19.60;90.00;;;;;;6150808;22;20150;-82
2023/09/21 03:34:45;;;;;;;3.05;2.75;;;19.60;90.00;;;;;;6124799;23;20595;-86
2023/09/21 03:37:13;;;;;;;3.22;2.90;;;19.60;90.00;;;;;;6124548;23;20190;-81
2023/09/21 03:39:39;;;;;;;3.25;2.95;;;19.50;90.00;;;;;;6100795;23;20163;-84
2023/09/21 03:42:05;;;;;;;3.13;2.83;;;19.60;90.00;;;;;;6124651;23;20468;-83
2023/09/21 03:44:31;;;;;;;3.20;2.83;;;19.60;90.00;;;;;;6076246;23;20175;-79
2023/09/21 03:46:57;;;;;;;3.10;2.80;;;19.60;90.00;;;;;;6150764;22;20167;-84
2023/09/21 03:49:23;;;;;;;3.58;3.28;;;19.60;90.00;;;;;;6150608;22;20175;-84
2023/09/21 03:51:49;;;;;;;3.42;2.95;;;19.50;90.00;;;;;;6100747;23;20144;-84
2023/09/21 03:54:16;;;;;;;3.30;2.92;;;19.60;90.00;;;;;;6125086;23;20163;-84
2023/09/21 03:56:42;;;;;;;3.55;2.97;;;19.50;90.00;;;;;;6150620;22;20140;-79
2023/09/21 03:59:10;;;;;;;3.92;3.10;;;19.50;90.00;;;;;;6150461;22;20686;-81
2023/09/21 04:01:37;;;;;;;3.00;2.70;;;19.60;90.00;;;;;;6124808;23;20436;-85
2023/09/21 04:04:17;;;;;;;3.25;2.95;;;19.50;90.00;;;;;;6150152;23;20448;-84
2023/09/21 04:06:43;;;;;;;3.30;3.00;;;19.50;90.00;;;;;;6150863;23;20132;-79
2023/09/21 04:09:10;;;;;;;3.40;3.00;;;19.60;90.00;;;;;;6076498;23;20155;-83
2023/09/21 04:11:35;;;;;;;3.30;2.70;;;19.60;90.00;;;;;;6151671;23;20147;-81
2023/09/21 04:14:02;;;;;;;3.42;3.00;;;19.60;90.00;;;;;;6125413;23;20143;-80
2023/09/21 04:16:28;;;;;;;3.42;3.13;;;19.50;90.00;;;;;;6126072;23;20136;-84
2023/09/21 04:18:55;;;;;;;3.28;2.97;;;19.50;90.00;;;;;;6125778;23;20156;-81
2023/09/21 04:21:23;;;;;;;3.38;2.90;;;19.50;90.00;;;;;;6126008;23;20143;-84
2023/09/21 04:23:49;;;;;;;3.30;3.00;;;19.50;90.00;;;;;;6151952;22;20170;-87
2023/09/21 04:26:15;;;;;;;3.20;2.78;;;19.50;90.00;;;;;;6151414;22;20187;-80
2023/09/21 04:28:41;;;;;;;3.88;2.70;;;19.60;90.00;;;;;;6101633;23;20174;-82
2023/09/21 04:31:09;;;;;;;3.65;3.30;;;19.50;90.00;;;;;;6151667;22;20498;-81
2023/09/21 04:33:35;;;;;;;4.43;3.38;;;19.50;90.00;;;;;;6126239;23;20136;-83
2023/09/21 04:36:01;;;;;;;3.10;2.80;;;19.50;90.00;;;;;;6151664;22;20162;-82
2023/09/21 04:38:27;;;;;;;3.45;3.15;;;19.50;90.00;;;;;;6125379;23;20235;-82
2023/09/21 04:40:53;;;;;;;3.55;3.08;;;19.50;90.00;;;;;;6125777;23;20187;-82
2023/09/21 04:43:20;;;;;;;3.30;2.90;;;19.60;90.00;;;;;;6151745;22;20475;-84
2023/09/21 04:45:51;;;;;;;3.22;2.92;;;19.50;89.90;;;;;;6152009;23;20488;-81
2023/09/21 04:48:17;;;;;;;3.10;2.63;;;19.50;90.00;;;;;;6202894;23;20183;-84
2023/09/21 04:50:46;;;;;;;3.25;2.95;;;19.50;90.00;;;;;;6151515;22;20176;-85
2023/09/21 04:53:12;;;;;;;3.20;2.83;;;19.50;89.90;;;;;;6151797;23;20147;-86
2023/09/21 04:55:38;;;;;;;2.92;2.58;;;19.50;89.90;;;;;;6151739;22;20132;-83
2023/09/21 04:58:04;;;;;;;3.28;2.80;;;19.50;89.80;;;;;;6151587;22;20506;-82
2023/09/21 05:00:29;;;;;;;3.40;3.10;;;19.60;89.70;;;;;;6125459;23;20185;-83
2023/09/21 05:02:55;;;;;;;3.40;3.05;;;19.60;90.00;;;;;;6125626;23;20139;-82
2023/09/21 05:05:24;;;;;;;3.38;3.08;;;19.60;89.90;;;;;;6101297;23;20468;-82
2023/09/21 05:07:50;;;;;;;3.35;3.05;;;19.50;89.90;;;;;;6100905;23;20166;-82
2023/09/21 05:10:16;;;;;;;3.53;2.95;;;19.50;89.90;;;;;;6151634;22;20168;-86
2023/09/21 05:12:42;;;;;;;3.20;2.88;;;19.50;90.00;;;;;;6125739;23;20143;-81
2023/09/21 05:15:11;;;;;;;3.33;3.03;;;19.50;90.00;;;;;;6125675;23;20147;-83
2023/09/21 05:17:36;;;;;;;3.38;3.08;;;19.50;90.00;;;;;;6151454;22;20139;-84
2023/09/21 05:20:05;;;;;;;3.13;2.83;;;19.50;89.90;;;;;;6125473;23;20252;-81
2023/09/21 05:22:32;;;;;;;3.25;2.95;;;19.50;89.80;;;;;;6101770;23;20202;-83
2023/09/21 05:24:59;;;;;;;3.05;2.78;;;19.50;89.70;;;;;;6120356;22;20195;-86
2023/09/21 05:27:24;;;;;;;3.50;3.17;;;19.60;89.80;;;;;;6096565;23;20148;-82
2023/09/21 05:29:50;;;;;;;3.20;2.90;;;19.50;89.80;;;;;;6122377;23;20217;-84
2023/09/21 05:32:16;;;;;;;3.40;3.10;;;19.50;89.70;;;;;;6120578;23;20137;-84
2023/09/21 05:34:43;;;;;;;3.60;3.05;;;19.50;89.70;;;;;;6072281;23;20542;-87
2023/09/21 05:37:09;;;;;;;3.20;2.90;;;19.50;89.60;;;;;;6094862;23;20152;-83
2023/09/21 05:39:35;;;;;;;3.30;3.00;;;19.50;89.60;;;;;;6222645;23;20240;-80
2023/09/21 05:42:01;;;;;;;4.00;2.63;;;19.50;89.70;;;;;;6120579;23;20144;-85
2023/09/21 05:44:28;;;;;;;2.92;2.63;;;19.50;89.70;;;;;;6096326;23;20163;-80
2023/09/21 05:46:54;;;;;;;3.20;2.80;;;19.50;89.60;;;;;;6122009;23;20151;-85
2023/09/21 05:49:23;;;;;;;3.47;3.00;;;19.50;89.60;;;;;;6096070;23;20190;-82
2023/09/21 05:51:52;;;;;;;3.28;2.83;;;19.50;89.60;;;;;;6120435;23;20152;-81
2023/09/21 05:54:20;;;;;;;2.95;2.53;;;19.50;89.60;;;;;;6096235;23;20148;-81
2023/09/21 05:56:46;;;;;;;2.90;2.58;;;19.50;89.60;;;;;;6096386;23;20148;-81
2023/09/21 05:59:11;;;;;;;3.30;3.00;;;19.50;89.70;;;;;;6121416;23;20143;-82
2023/09/21 06:01:37;;;;;;;3.00;2.70;;;19.60;89.70;;;;;;6095830;23;20156;-85
2023/09/21 06:04:04;;;;;;;2.80;2.50;;;19.50;89.70;;;;;;6121032;23;20163;-83
2023/09/21 06:06:31;;;;;;;2.70;2.50;;;19.50;89.70;;;;;;6122287;23;20160;-83
2023/09/21 06:08:57;;;;;;;3.10;2.40;;;19.50;89.80;;;;;;6120486;23;20228;-86
2023/09/21 06:11:25;;;;;;;3.20;2.60;;;19.50;89.70;;;;;;6121640;23;20164;-83
2023/09/21 06:13:53;;;;;;;3.50;3.08;;;19.60;89.70;;;;;;6097522;23;20144;-85
2023/09/21 06:16:21;;;;;;;3.20;2.90;;;19.50;89.70;;;;;;6073888;23;20467;-81
2023/09/21 06:18:49;;;;;;;3.60;3.08;;;19.60;89.80;;;;;;6198317;23;20179;-81
2023/09/21 06:21:16;;;;;;;4.07;3.20;;;19.50;89.70;;;;;;6224382;23;20235;-84
2023/09/21 06:23:44;;;;;;;3.05;2.75;;;19.60;89.80;;;;;;6199484;23;20156;-82
2023/09/21 06:26:14;;;;;;;4.25;2.97;;;19.60;89.80;;;;;;6123077;22;20566;-85
2023/09/21 06:28:43;;;;;;;3.10;2.80;;;19.60;89.80;;;;;;6125338;23;20164;-84
2023/09/21 06:31:12;;;;;;;3.50;2.58;;;19.60;89.80;;;;;;6124439;23;20210;-82
2023/09/21 06:33:40;;;;;;;3.92;3.13;;;19.60;89.80;;;;;;6123673;23;20132;-81
2023/09/21 06:36:14;;;;;;;2.80;2.50;;;19.60;89.80;;;;;;6074701;23;20176;-80
2023/09/21 06:38:42;;;;;;;3.15;2.83;;;19.60;89.80;;;;;;6122461;23;20158;-80
2023/09/21 06:41:09;;;;;;;3.45;2.85;;;19.60;89.70;;;;;;6074776;23;20156;-84
2023/09/21 06:43:39;;;;;;;4.00;2.90;;;19.60;89.70;;;;;;6098793;23;20182;-86
2023/09/21 06:46:05;;;;;;;2.90;2.60;;;19.60;90.20;;;;;;6097757;23;20499;-85
2023/09/21 06:48:31;;;;;;;4.07;3.10;;;19.50;89.70;;;;;;6096402;23;20202;-87
2023/09/21 06:50:57;;;;;;;3.25;2.92;;;19.60;89.70;;;;;;6120947;23;20168;-84
2023/09/21 06:53:23;;;;;;;3.72;3.08;;;19.60;89.70;;;;;;6122171;23;20129;-80
2023/09/21 06:55:49;;;;;;;3.67;3.03;;;19.60;89.70;;;;;;6120749;23;20140;-83
2023/09/21 06:58:15;;;;;;;3.45;2.92;;;19.70;89.70;;;;;;6122172;23;20143;-86
2023/09/21 07:00:42;;;;;;;4.13;3.30;;;19.60;89.70;;;;;;6121761;23;20572;-86
2023/09/21 07:03:09;;;;;;;3.88;2.83;;;19.60;89.70;;;;;;6096784;23;20198;-85
2023/09/21 07:05:35;;;;;;;3.60;2.90;;;19.70;89.80;;;;;;6120677;23;20194;-82
2023/09/21 07:08:01;;;;;;;3.05;2.75;;;19.70;89.70;;;;;;6095861;23;20650;-82
2023/09/21 07:10:27;;;;;;;3.20;2.90;;;19.70;89.70;;;;;;6096329;23;20264;-87
2023/09/21 07:12:53;;;;;;;3.20;2.90;;;19.70;89.70;;;;;;6120302;23;20140;-82
2023/09/21 07:15:19;;;;;;;3.03;2.72;;;19.70;89.70;;;;;;6122116;23;20147;-84
2023/09/21 07:17:46;;;;;;;3.28;2.85;;;19.70;89.60;;;;;;6096824;23;20235;-82
2023/09/21 07:20:12;;;;;;;3.22;2.92;;;19.70;89.60;;;;;;6122126;23;20140;-81
2023/09/21 07:22:38;;;;;;;3.45;3.05;;;19.70;89.60;;;;;;6123448;23;20140;-84
2023/09/21 07:25:04;;;;;;;3.28;2.97;;;19.80;89.60;;;;;;6096861;23;20200;-84
2023/09/21 07:27:30;;;;;;;3.40;3.10;;;19.80;89.70;;;;;;6097109;23;20141;-85
2023/09/21 07:29:56;;;;;;;3.78;2.95;;;19.80;89.60;;;;;;6122469;23;20262;-83
2023/09/21 07:32:25;;;;;;;4.05;3.20;;;19.80;89.60;;;;;;6098173;23;20233;-87
2023/09/21 07:34:51;;;;;;;3.45;3.10;;;19.80;89.60;;;;;;6121780;23;20219;-85
2023/09/21 07:37:18;;;;;;;3.55;3.20;;;19.80;89.50;;;;;;6122730;23;20160;-84
2023/09/21 07:39:47;;;;;;;3.33;3.00;;;19.80;89.50;;;;;;6071837;23;20180;-85
2023/09/21 07:42:13;;;;;;;3.45;3.10;;;19.80;89.40;;;;;;6095324;23;20213;-79
2023/09/21 07:44:42;;;;;;;3.20;2.60;;;19.90;89.50;;;;;;6122369;23;20143;-82
2023/09/21 07:47:12;;;;;;;3.95;3.13;;;19.90;89.50;;;;;;6123202;23;20238;-79
2023/09/21 07:49:40;;;;;;;3.10;2.70;;;19.90;89.40;;;;;;6224581;23;20180;-82
2023/09/21 07:52:07;;;;;;;3.30;3.00;;;19.90;89.20;;;;;;6097532;23;20180;-83
2023/09/21 07:54:35;;;;;;;3.80;3.05;;;19.90;89.10;;;;;;6121701;23;20157;-82
2023/09/21 07:57:03;;;;;;;3.50;3.13;;;19.90;89.30;;;;;;6073250;23;20164;-83
2023/09/21 07:59:29;;;;;;;3.47;3.17;;;20.00;89.20;;;;;;6122629;23;20136;-82
2023/09/21 08:01:56;;;;;;;3.10;2.80;;;20.00;89.20;;;;;;6123074;23;20185;-82
2023/09/21 08:04:22;;;;;;;3.00;2.70;;;20.00;89.20;;;;;;6123843;23;20183;-82
2023/09/21 08:06:49;;;;;;;3.10;2.80;;;20.00;89.20;;;;;;6122342;23;20148;-82
2023/09/21 08:09:18;;;;;;;3.72;2.70;;;20.00;89.10;;;;;;6123182;23;20908;-85
2023/09/21 08:11:45;;;;;;;3.30;3.00;;;20.00;89.10;;;;;;6122057;23;20155;-82
2023/09/21 08:14:10;;;;;;;4.00;3.53;;;20.00;88.90;;;;;;6122349;23;20133;-84
2023/09/21 08:16:37;;;;;;;4.07;3.25;;;20.10;88.90;;;;;;6074014;23;20148;-81
2023/09/21 08:19:03;;;;;;;4.10;3.38;;;20.10;88.90;;;;;;6123377;23;20156;-85
2023/09/21 08:21:31;;;;;;;3.25;2.92;;;20.10;89.00;;;;;;6097065;23;20206;-83
2023/09/21 08:23:57;;;;;;;4.00;2.83;;;20.10;89.10;;;;;;6097090;23;20156;-84
2023/09/21 08:26:23;;;;;;;4.90;3.28;;;20.10;89.00;;;;;;6149032;23;20269;-80
2023/09/21 08:28:49;;;;;;;3.17;2.88;;;20.10;88.80;;;;;;6127137;23;20144;-82
2023/09/21 08:31:14;;;;;;;3.17;2.88;;;20.10;88.90;;;;;;6126452;23;20203;-81
2023/09/21 08:33:40;;;;;;;4.25;3.58;;;20.10;88.80;;;;;;6152450;22;20128;-81
2023/09/21 08:36:08;;;;;;;6.15;3.55;;;20.10;88.70;;;;;;6126587;23;20132;-82
2023/09/21 08:38:34;;;;;;;3.63;3.22;;;20.10;88.70;;;;;;6127018;23;20622;-82
2023/09/21 08:41:00;;;;;;;3.92;3.33;;;20.10;88.70;;;;;;6126448;23;20170;-83
2023/09/21 08:43:26;;;;;;;4.10;3.33;;;20.10;88.60;;;;;;6152521;22;20131;-85
2023/09/21 08:45:52;;;;;;;3.50;3.20;;;20.20;88.60;;;;;;6126795;23;20571;-81
2023/09/21 08:48:20;;;;;;;3.60;3.25;;;20.20;88.60;;;;;;6153283;22;20468;-81
2023/09/21 08:50:48;;;;;;;4.47;3.70;;;20.20;88.60;;;;;;6127044;23;20673;-81
2023/09/21 08:53:13;;;;;;;5.97;3.90;;;20.30;88.40;;;;;;6125877;23;20139;-84
2023/09/21 08:55:40;;;;;;;4.63;3.80;;;20.30;88.10;;;;;;6126571;23;20598;-84
2023/09/21 08:58:06;;;;;;;3.85;3.40;;;20.40;88.00;;;;;;6126393;23;20135;-85
2023/09/21 09:00:32;;;;;;;3.70;3.17;;;20.30;87.90;;;;;;6152311;22;20135;-84
2023/09/21 09:02:58;;;;;;;3.83;3.38;;;20.30;88.10;;;;;;6152769;23;20147;-82
2023/09/21 09:05:24;;;;;;;3.90;3.50;;;20.30;88.10;;;;;;6152523;22;20140;-86
2023/09/21 09:07:51;;;;;;;3.88;3.30;;;20.20;88.00;;;;;;6129178;23;20524;-83
2023/09/21 09:10:18;;;;;;;4.47;3.60;;;20.30;88.10;;;;;;6129361;23;20876;-83
2023/09/21 09:12:44;;;;;;;3.60;3.30;;;20.30;88.10;;;;;;6155985;23;20136;-84
2023/09/21 09:15:10;;;;;;;3.90;3.50;;;20.30;88.10;;;;;;6130772;23;20136;-81
2023/09/21 09:17:36;;;;;;;3.28;2.78;;;20.30;88.10;;;;;;6128329;23;20139;-80
2023/09/21 09:20:05;;;;;;;4.57;3.53;;;20.30;88.20;;;;;;6126232;23;20148;-83
2023/09/21 09:22:38;;;;;;;4.25;3.28;;;20.30;88.10;;;;;;6152370;22;20178;-81
2023/09/21 09:25:04;;;;;;;4.28;3.47;;;20.40;88.10;;;;;;6076482;23;20211;-80
2023/09/21 09:27:32;;;;;;;4.10;3.38;;;20.30;88.00;;;;;;6125823;23;20238;-81
2023/09/21 09:29:58;;;;;;;4.45;3.30;;;20.30;87.90;;;;;;6101884;23;20172;-83
2023/09/21 09:32:23;;;;;;;4.20;3.35;;;20.40;87.90;;;;;;6125934;23;20140;-84
2023/09/21 09:34:50;;;;;;;3.97;3.47;;;20.30;87.90;;;;;;6102117;23;20632;-82
2023/09/21 09:37:16;;;;;;;4.13;3.22;;;20.40;87.90;;;;;;6131131;23;20478;-80
2023/09/21 09:39:44;;;;;;;4.03;3.63;;;20.40;87.80;;;;;;6126777;23;20598;-84
2023/09/21 09:42:14;;;;;;;3.80;3.40;;;20.50;87.80;;;;;;6102559;23;20281;-80
2023/09/21 09:44:44;;;;;;;3.63;3.28;;;20.40;87.70;;;;;;6178274;23;20547;-84
2023/09/21 09:47:12;;;;;;;3.80;3.40;;;20.40;87.70;;;;;;6106097;23;20151;-85
2023/09/21 09:49:40;;;;;;;4.85;3.42;;;20.40;87.70;;;;;;6103356;23;20170;-84
2023/09/21 09:52:09;;;;;;;4.07;3.33;;;20.40;87.60;;;;;;6109846;23;20135;-82
2023/09/21 09:54:35;;;;;;;4.60;3.40;;;20.40;87.60;;;;;;6131262;23;20146;-78
2023/09/21 09:57:01;;;;;;;3.85;3.45;;;20.40;87.50;;;;;;6125001;23;20188;-76
2023/09/21 09:59:28;;;;;;;4.07;3.67;;;20.40;87.50;;;;;;6147897;23;20139;-80
2023/09/21 10:01:55;;;;;;;4.72;3.38;;;20.40;87.40;;;;;;6130038;23;20139;-83
2023/09/21 10:04:21;;;;;;;3.70;3.40;;;20.50;87.40;;;;;;6102692;23;20158;-86
2023/09/21 10:06:47;;;;;;;3.47;2.97;;;20.50;87.40;;;;;;6126230;23;20151;-86
2023/09/21 10:09:14;;;;;;;3.15;2.83;;;20.50;87.20;;;;;;6102441;23;20170;-85
2023/09/21 10:11:45;;;;;;;3.42;3.13;;;20.50;87.10;;;;;;6133682;23;20128;-84
2023/09/21 10:14:13;;;;;;;5.00;3.08;;;20.50;87.00;;;;;;6135736;23;20148;-79
2023/09/21 10:16:48;;;;;;;4.63;3.35;;;20.50;86.70;;;;;;6133549;23;20249;-79
2023/09/21 10:19:16;;;;;;;3.33;2.85;;;20.70;86.70;;;;;;6085993;23;20151;-79
2023/09/21 10:21:45;;;;;;;3.30;3.00;;;20.60;86.60;;;;;;6103648;23;20139;-85
2023/09/21 10:24:17;;;;;;;3.58;3.28;;;20.60;86.50;;;;;;6127028;23;20135;-83
2023/09/21 10:26:45;;;;;;;3.40;3.10;;;20.60;86.60;;;;;;6102332;23;20168;-82
2023/09/21 10:29:12;;;;;;;4.25;3.45;;;20.60;86.60;;;;;;6126587;23;20754;-82
2023/09/21 10:31:42;;;;;;;3.90;3.10;;;20.60;86.50;;;;;;6126253;23;20181;-83
2023/09/21 10:34:10;;;;;;;3.63;3.00;;;20.60;86.50;;;;;;6101285;23;20155;-85
2023/09/21 10:36:42;;;;;;;3.85;3.22;;;20.60;86.40;;;;;;6127790;23;20523;-82
2023/09/21 10:39:26;;;;;;;3.25;2.90;;;20.60;86.30;;;;;;6129993;23;20127;-83
2023/09/21 10:41:55;;;;;;;3.70;3.38;;;20.60;86.20;;;;;;6154483;22;20138;-79
2023/09/21 10:45:03;;;;;;;3.58;3.15;;;20.60;86.20;;;;;;6079702;23;20707;-85
2023/09/21 10:47:34;;;;;;;3.72;3.35;;;20.60;86.20;;;;;;6129897;23;20140;-83
2023/09/21 10:50:02;;;;;;;3.03;2.70;;;20.50;86.10;;;;;;6105329;23;20254;-80
2023/09/21 10:52:28;;;;;;;3.17;2.88;;;20.60;86.20;;;;;;6104500;23;20592;-86
2023/09/21 10:54:55;;;;;;;3.72;3.30;;;20.60;85.90;;;;;;6103128;23;20219;-85
2023/09/21 10:57:24;;;;;;;3.97;2.80;;;20.60;85.80;;;;;;6126368;23;20215;-86
2023/09/21 10:59:52;;;;;;;3.63;3.20;;;20.70;85.70;;;;;;6152857;22;20132;-83
2023/09/21 11:02:18;;;;;;;3.47;3.17;;;20.70;85.60;;;;;;6101957;23;20288;-82
2023/09/21 11:04:44;;;;;;;4.07;3.47;;;20.70;85.50;;;;;;6101956;23;20139;-87
2023/09/21 11:07:12;;;;;;;3.47;3.17;;;20.70;85.40;;;;;;6125737;23;20147;-85
2023/09/21 11:09:39;;;;;;;3.60;3.00;;;20.70;86.10;;;;;;6128381;23;20195;-88
2023/09/21 11:12:08;;;;;;;3.63;3.33;;;20.80;85.10;;;;;;6106948;23;20194;-82
2023/09/21 11:14:34;;;;;;;3.88;3.17;;;20.70;85.00;;;;;;6108179;23;20154;-84
2023/09/21 11:17:00;;;;;;;3.67;3.08;;;20.70;84.90;;;;;;6105498;23;20186;-83
2023/09/21 11:19:26;;;;;;;3.85;3.30;;;20.70;84.80;;;;;;6112470;23;20136;-80
2023/09/21 11:21:52;;;;;;;3.42;2.92;;;20.70;84.70;;;;;;6107422;23;20135;-83
2023/09/21 11:24:20;;;;;;;3.67;3.30;;;20.80;84.70;;;;;;6134285;23;20610;-81
2023/09/21 11:26:54;;;;;;;3.67;3.05;;;20.80;84.60;;;;;;6108425;23;20211;-85
2023/09/21 11:29:20;;;;;;;4.30;3.05;;;20.80;84.60;;;;;;6130406;23;20154;-85
2023/09/21 11:31:51;;;;;;;3.30;2.90;;;20.80;84.50;;;;;;6103233;23;20148;-85
2023/09/21 11:34:18;;;;;;;3.42;3.00;;;20.80;84.50;;;;;;6218593;23;20145;-81
2023/09/21 11:36:44;;;;;;;3.15;2.85;;;20.80;84.50;;;;;;6217549;23;20157;-82
2023/09/21 11:39:11;;;;;;;3.88;3.00;;;20.80;84.50;;;;;;6217352;23;20215;-81
2023/09/21 11:41:39;;;;;;;3.33;3.03;;;20.80;84.50;;;;;;6192848;23;20192;-80
2023/09/21 11:44:05;;;;;;;3.17;2.75;;;20.80;84.50;;;;;;6243438;23;20268;-80
2023/09/21 11:46:32;;;;;;;2.90;2.60;;;20.80;84.70;;;;;;6217910;23;20213;-80
2023/09/21 11:48:59;;;;;;;3.90;3.10;;;20.80;84.70;;;;;;6152797;23;20163;-80
2023/09/21 11:51:28;;;;;;;3.20;2.90;;;20.80;84.50;;;;;;6079900;23;20191;-80
2023/09/21 11:53:58;;;;;;;3.65;3.15;;;20.70;84.50;;;;;;6152497;23;20710;-82
2023/09/21 11:56:24;;;;;;;4.18;3.17;;;20.80;84.70;;;;;;6040074;23;20157;-82
2023/09/21 11:58:53;;;;;;;3.95;3.30;;;20.80;84.90;;;;;;6040787;23;20705;-79
2023/09/21 12:01:19;;;;;;;3.35;3.00;;;20.80;84.70;;;;;;6064478;23;20169;-81
2023/09/21 12:03:52;;;;;;;4.15;3.10;;;20.80;84.80;;;;;;6040581;23;20157;-86
2023/09/21 12:06:18;;;;;;;3.28;2.97;;;20.80;84.70;;;;;;6075180;23;20238;-78
2023/09/21 12:08:44;;;;;;;3.50;2.88;;;20.80;84.80;;;;;;6097619;23;20186;-83
2023/09/21 12:11:12;;;;;;;3.63;2.85;;;20.80;84.70;;;;;;6074314;23;20567;-85
2023/09/21 12:13:38;;;;;;;3.72;3.00;;;20.80;84.70;;;;;;6098054;23;20175;-82
2023/09/21 12:16:06;;;;;;;3.50;3.03;;;20.90;84.70;;;;;;6074103;23;20514;-83
2023/09/21 12:18:32;;;;;;;3.20;2.83;;;20.90;84.70;;;;;;6098691;23;20141;-83
2023/09/21 12:21:00;;;;;;;3.70;2.92;;;20.90;84.80;;;;;;6064797;23;20180;-82
2023/09/21 12:23:26;;;;;;;3.35;2.88;;;20.90;84.80;;;;;;6013116;23;20138;-80
2023/09/21 12:25:52;;;;;;;3.20;2.90;;;20.90;84.70;;;;;;5988441;23;20308;-84
2023/09/21 12:28:19;;;;;;;3.30;3.00;;;20.80;84.60;;;;;;6092609;23;20430;-81
2023/09/21 12:30:47;;;;;;;3.60;3.00;;;20.90;84.70;;;;;;6124806;23;20186;-79
2023/09/21 12:33:15;;;;;;;3.47;3.00;;;20.80;84.70;;;;;;6101870;23;20151;-81
2023/09/21 12:35:41;;;;;;;3.35;3.05;;;20.90;84.80;;;;;;6125476;23;20175;-83
2023/09/21 12:38:07;;;;;;;3.50;2.80;;;20.90;84.80;;;;;;6077013;23;20152;-82
2023/09/21 12:40:33;;;;;;;5.15;3.05;;;20.90;84.80;;;;;;6101148;23;20155;-85
2023/09/21 12:42:59;;;;;;;3.90;2.97;;;20.80;84.80;;;;;;6125799;23;20531;-80
2023/09/21 12:45:25;;;;;;;3.45;3.10;;;20.90;84.90;;;;;;6125606;23;20219;-80
2023/09/21 12:47:51;;;;;;;3.17;2.83;;;20.80;84.80;;;;;;6151790;22;20621;-84
2023/09/21 12:50:17;;;;;;;3.63;3.00;;;20.90;84.80;;;;;;6101383;23;20607;-82
2023/09/21 12:52:43;;;;;;;3.28;2.97;;;20.90;84.80;;;;;;6102382;23;20162;-80